Time;durP1;ratioP1;P1;durP2;ratioP2;P2;SDS_P1;SDS_P2;PMS_P1;PMS_P2;Temp;Humidity;BMP_temperature;BMP_pressure;BME280_temperature;BME280_humidity;BME280_pressure;Samples;Min_cycle;Max_cycle;Signal;HPM_P1;HPM_P2
2021/04/21 00:03:05;;;;;;;16.77;11.77;;;8.40;61.80;;;;;;5919964;40;20043;-69
2021/04/21 00:07:08;;;;;;;16.58;11.77;;;8.30;62.20;;;;;;5928332;40;20610;-69
2021/04/21 00:11:12;;;;;;;20.70;12.10;;;8.30;62.30;;;;;;5920121;40;20385;-69
2021/04/21 00:15:24;;;;;;;18.55;12.05;;;8.20;62.50;;;;;;5928207;40;20040;-69
2021/04/21 00:19:31;;;;;;;21.00;12.65;;;8.10;62.80;;;;;;5918890;40;20052;-69
2021/04/21 00:23:39;;;;;;;15.68;11.88;;;8.10;62.90;;;;;;5930229;40;20060;-69
2021/04/21 00:27:46;;;;;;;20.33;13.25;;;8.00;62.70;;;;;;5919392;40;20072;-69
2021/04/21 00:31:55;;;;;;;19.65;12.10;;;8.00;63.00;;;;;;5921551;40;20049;-70
2021/04/21 00:36:05;;;;;;;20.50;12.35;;;7.90;63.30;;;;;;5928239;40;20163;-71
2021/04/21 00:40:15;;;;;;;21.48;13.80;;;7.80;63.30;;;;;;5922714;40;20160;-71
2021/04/21 00:44:24;;;;;;;17.92;12.55;;;7.70;63.50;;;;;;5931510;40;20085;-70
2021/04/21 00:49:09;;;;;;;18.38;11.75;;;7.70;63.30;;;;;;5932427;40;20049;-70
2021/04/21 00:53:19;;;;;;;19.90;12.77;;;7.70;63.50;;;;;;5928135;40;20351;-71
2021/04/21 00:57:52;;;;;;;24.17;14.23;;;7.60;63.60;;;;;;5922635;40;20052;-70
2021/04/21 01:01:57;;;;;;;21.27;13.95;;;7.60;64.10;;;;;;5927558;40;20060;-70
2021/04/21 01:06:05;;;;;;;23.20;14.45;;;7.50;63.80;;;;;;5927242;40;20317;-70
2021/04/21 01:10:13;;;;;;;19.52;12.20;;;7.40;64.20;;;;;;5928057;40;20118;-70
2021/04/21 01:14:28;;;;;;;17.30;12.63;;;7.40;64.00;;;;;;5928155;40;20040;-70
2021/04/21 01:18:35;;;;;;;21.27;12.85;;;7.30;60.40;;;;;;5927013;40;21789;-71
2021/04/21 01:22:45;;;;;;;22.67;15.38;;;7.30;64.30;;;;;;5919943;40;20056;-69
2021/04/21 01:27:08;;;;;;;21.20;14.75;;;7.20;64.30;;;;;;5929826;40;20098;-70
2021/04/21 01:31:15;;;;;;;21.25;15.48;;;7.30;65.00;;;;;;5930045;40;20150;-69
2021/04/21 01:35:21;;;;;;;25.50;15.60;;;7.20;64.40;;;;;;5926921;40;20336;-69
2021/04/21 01:39:27;;;;;;;22.23;12.95;;;7.10;64.70;;;;;;5908738;40;20052;-69
2021/04/21 01:43:36;;;;;;;23.20;14.05;;;7.10;64.70;;;;;;5925393;40;20077;-69
2021/04/21 01:47:43;;;;;;;21.33;15.52;;;7.10;64.90;;;;;;5927422;40;20128;-69
2021/04/21 01:52:05;;;;;;;22.10;14.55;;;7.00;65.20;;;;;;5927003;40;20052;-69
2021/04/21 01:56:22;;;;;;;20.50;13.77;;;7.00;65.50;;;;;;5929010;40;20056;-70
2021/04/21 02:00:41;;;;;;;21.15;15.27;;;6.90;65.10;;;;;;5927026;40;20048;-70
2021/04/21 02:04:42;;;;;;;20.33;13.80;;;6.90;65.50;;;;;;5926931;40;20051;-69
2021/04/21 02:09:17;;;;;;;23.08;15.00;;;6.80;65.10;;;;;;5928984;40;20036;-70
2021/04/21 02:13:40;;;;;;;17.25;11.70;;;6.80;65.90;;;;;;5930858;40;20055;-70
2021/04/21 02:18:25;;;;;;;20.90;14.43;;;6.80;65.60;;;;;;5922806;40;20318;-70
2021/04/21 02:22:39;;;;;;;24.05;14.73;;;6.70;65.30;;;;;;5932053;40;20056;-70
2021/04/21 02:26:59;;;;;;;20.85;15.23;;;6.70;65.60;;;;;;5925894;40;20092;-70
2021/04/21 02:31:15;;;;;;;26.00;15.50;;;6.60;65.80;;;;;;5924536;40;20092;-70
2021/04/21 02:35:25;;;;;;;23.98;15.18;;;6.60;65.90;;;;;;5925516;40;20590;-69
2021/04/21 02:40:08;;;;;;;23.27;15.45;;;6.50;65.80;;;;;;5917105;40;20429;-69
2021/04/21 02:44:26;;;;;;;23.52;15.52;;;6.50;66.60;;;;;;5923945;40;20077;-68
2021/04/21 02:49:15;;;;;;;26.73;16.55;;;6.50;66.20;;;;;;5919275;40;20064;-69
2021/04/21 02:53:48;;;;;;;25.98;16.10;;;6.50;66.00;;;;;;5922100;40;20120;-68
2021/04/21 02:58:03;;;;;;;25.70;16.77;;;6.40;66.00;;;;;;5910845;40;20063;-69
2021/04/21 03:02:24;;;;;;;27.08;16.83;;;6.40;66.00;;;;;;5928531;40;20033;-69
2021/04/21 03:06:40;;;;;;;27.13;17.50;;;6.30;66.00;;;;;;5926823;40;20412;-69
2021/04/21 03:10:51;;;;;;;25.30;16.75;;;6.30;66.30;;;;;;5925034;40;20130;-68
2021/04/21 03:15:03;;;;;;;26.08;18.00;;;6.20;66.20;;;;;;5927500;40;20052;-69
2021/04/21 03:19:13;;;;;;;24.55;16.80;;;6.20;66.50;;;;;;5922027;40;20056;-69
2021/04/21 03:23:22;;;;;;;26.90;17.30;;;6.20;66.20;;;;;;5924247;40;20538;-68
2021/04/21 03:27:30;;;;;;;29.45;19.77;;;6.10;66.90;;;;;;5926482;40;20104;-68
2021/04/21 03:31:41;;;;;;;31.55;19.85;;;6.10;66.50;;;;;;5914969;40;20452;-68
2021/04/21 03:35:48;;;;;;;28.63;19.98;;;6.00;66.90;;;;;;5928111;40;20055;-68
2021/04/21 03:40:00;;;;;;;25.58;18.67;;;6.00;66.90;;;;;;5925926;40;20061;-69
2021/04/21 03:44:06;;;;;;;27.40;19.98;;;6.00;67.30;;;;;;5915534;40;20049;-69
2021/04/21 03:48:15;;;;;;;30.75;20.30;;;6.00;67.20;;;;;;5925362;40;20045;-69
2021/04/21 03:52:23;;;;;;;25.92;17.60;;;5.90;67.20;;;;;;5925408;40;20085;-69
2021/04/21 03:56:31;;;;;;;30.40;20.42;;;5.90;67.60;;;;;;5926581;40;20247;-69
2021/04/21 04:00:38;;;;;;;32.20;21.73;;;5.90;67.40;;;;;;5923192;40;21403;-69
2021/04/21 04:04:51;;;;;;;28.67;19.42;;;5.90;67.70;;;;;;5915980;40;20053;-69
2021/04/21 04:09:09;;;;;;;32.05;20.80;;;5.90;69.90;;;;;;5926864;40;20232;-70
2021/04/21 04:13:15;;;;;;;32.47;20.33;;;5.90;69.20;;;;;;5918041;40;20362;-70
2021/04/21 04:17:22;;;;;;;30.40;20.40;;;5.80;69.80;;;;;;5931329;40;20052;-70
2021/04/21 04:21:35;;;;;;;33.50;21.33;;;5.80;68.80;;;;;;5925466;40;20072;-69
2021/04/21 04:25:44;;;;;;;33.80;21.77;;;5.90;69.30;;;;;;5925319;40;20055;-69
2021/04/21 04:29:49;;;;;;;32.35;21.58;;;5.90;69.00;;;;;;5919787;40;20056;-68
2021/04/21 04:34:01;;;;;;;34.10;22.00;;;5.90;69.70;;;;;;5930585;40;20743;-69
2021/04/21 04:38:08;;;;;;;32.67;20.20;;;6.00;69.00;;;;;;5928922;40;20036;-69
2021/04/21 04:42:15;;;;;;;41.22;25.88;;;6.00;69.10;;;;;;5916215;40;20052;-69
2021/04/21 04:46:22;;;;;;;34.05;21.48;;;6.10;69.60;;;;;;5924407;40;20048;-69
2021/04/21 04:50:26;;;;;;;42.10;25.08;;;6.10;69.50;;;;;;5928555;40;20081;-69
2021/04/21 04:54:39;;;;;;;37.53;22.98;;;6.20;69.80;;;;;;5925192;40;20047;-69
2021/04/21 04:58:45;;;;;;;;;;;6.30;71.50;;;;;;5922562;40;20067;-69
2021/04/21 05:03:16;;;;;;;35.17;21.50;;;6.40;75.30;;;;;;5913170;40;19948;-67
2021/04/21 05:08:11;;;;;;;40.30;21.92;;;6.60;74.30;;;;;;5915475;40;20044;-67
2021/04/21 05:12:20;;;;;;;39.97;22.77;;;6.70;72.30;;;;;;5899230;40;20037;-65
2021/04/21 05:16:27;;;;;;;30.30;18.87;;;6.80;71.90;;;;;;5914183;40;20041;-67
2021/04/21 05:20:53;;;;;;;34.80;20.42;;;6.90;76.50;;;;;;5923106;40;20056;-68
2021/04/21 05:25:06;;;;;;;34.53;21.35;;;7.00;75.50;;;;;;5919812;40;20099;-72
2021/04/21 05:29:29;;;;;;;24.50;14.98;;;7.10;73.40;;;;;;5935739;40;20063;-71
2021/04/21 05:33:51;;;;;;;32.55;19.20;;;7.30;75.40;;;;;;5928623;40;20359;-72
2021/04/21 05:38:17;;;;;;;28.50;17.05;;;7.50;73.30;;;;;;5932336;40;20043;-72
2021/04/21 05:42:43;;;;;;;34.88;17.50;;;7.60;76.30;;;;;;5931063;40;20130;-72
2021/04/21 05:47:25;;;;;;;34.22;18.15;;;7.60;76.00;;;;;;5932068;40;20420;-71
2021/04/21 05:51:50;;;;;;;26.98;16.55;;;7.70;84.50;;;;;;5908474;40;20060;-72
2021/04/21 05:56:25;;;;;;;25.08;14.45;;;7.80;76.30;;;;;;5932628;40;20049;-72
2021/04/21 06:00:51;;;;;;;23.15;14.40;;;7.80;76.40;;;;;;5922095;40;20060;-72
2021/04/21 06:05:09;;;;;;;26.55;13.57;;;7.80;74.60;;;;;;5928743;40;20041;-72
2021/04/21 06:09:13;;;;;;;22.42;12.48;;;7.90;76.30;;;;;;5930364;40;20036;-72
2021/04/21 06:13:30;;;;;;;24.13;12.18;;;7.90;77.50;;;;;;5918311;40;20063;-72
2021/04/21 06:17:37;;;;;;;22.48;13.60;;;7.90;78.70;;;;;;5926516;40;20037;-71
2021/04/21 06:21:43;;;;;;;17.20;10.10;;;8.00;79.30;;;;;;5926977;40;20096;-71
2021/04/21 06:25:50;;;;;;;21.48;10.60;;;8.10;74.90;;;;;;5921391;40;20308;-72
2021/04/21 06:30:04;;;;;;;18.63;11.20;;;8.20;80.00;;;;;;5921984;40;20574;-72
2021/04/21 06:34:10;;;;;;;20.20;9.52;;;8.20;76.70;;;;;;5930173;40;20065;-73
2021/04/21 06:38:16;;;;;;;16.67;9.45;;;8.30;76.80;;;;;;5934786;40;20444;-72
2021/04/21 06:42:20;;;;;;;17.38;8.07;;;8.30;76.60;;;;;;5930242;40;20080;-71
2021/04/21 06:46:26;;;;;;;15.23;7.03;;;8.40;76.10;;;;;;5928227;40;20106;-71
2021/04/21 06:50:32;;;;;;;14.18;6.75;;;8.40;75.70;;;;;;5928998;40;20514;-72
2021/04/21 06:54:36;;;;;;;10.55;5.75;;;9.10;75.10;;;;;;5930125;40;20055;-72
2021/04/21 06:58:40;;;;;;;17.88;5.47;;;8.80;78.00;;;;;;5924683;40;20260;-72
2021/04/21 07:02:48;;;;;;;7.80;2.75;;;9.00;77.70;;;;;;5930317;40;20399;-72
2021/04/21 07:06:53;;;;;;;7.95;2.30;;;9.10;77.50;;;;;;5917724;40;20122;-72
2021/04/21 07:11:01;;;;;;;5.70;2.47;;;9.30;75.30;;;;;;5930222;40;20336;-73
2021/04/21 07:15:07;;;;;;;8.23;1.67;;;9.40;75.20;;;;;;5930886;40;20194;-72
2021/04/21 07:19:14;;;;;;;7.43;1.50;;;9.70;73.30;;;;;;5906945;40;20469;-65
2021/04/21 07:23:20;;;;;;;5.00;1.23;;;9.90;73.70;;;;;;5923787;40;20064;-68
2021/04/21 07:27:27;;;;;;;6.47;1.35;;;9.90;73.40;;;;;;5926661;40;20060;-68
2021/04/21 07:31:42;;;;;;;8.90;2.03;;;10.00;72.90;;;;;;5929028;40;20051;-68
2021/04/21 07:36:06;;;;;;;8.38;1.45;;;10.10;72.20;;;;;;5922615;40;20048;-68
2021/04/21 07:40:31;;;;;;;12.10;1.70;;;10.10;72.30;;;;;;5920513;40;20336;-68
2021/04/21 07:44:50;;;;;;;7.93;1.30;;;10.10;72.10;;;;;;5924284;40;20057;-68
2021/04/21 07:48:55;;;;;;;14.45;1.90;;;10.10;73.70;;;;;;5915184;40;20055;-66
2021/04/21 07:53:02;;;;;;;7.38;1.30;;;10.30;73.00;;;;;;5913975;40;20052;-68
2021/04/21 07:57:28;;;;;;;8.88;2.28;;;10.60;72.80;;;;;;5925449;40;20363;-68
2021/04/21 08:01:36;;;;;;;7.00;1.27;;;10.80;74.00;;;;;;5925707;39;20072;-67
2021/04/21 08:05:56;;;;;;;10.57;1.95;;;10.80;71.70;;;;;;5927064;40;20517;-67
2021/04/21 08:10:05;;;;;;;9.48;1.63;;;10.70;70.50;;;;;;5924558;40;20053;-68
2021/04/21 08:14:10;;;;;;;11.07;1.85;;;10.90;70.40;;;;;;5917541;40;20048;-66
2021/04/21 08:18:36;;;;;;;8.27;1.20;;;11.10;69.80;;;;;;5922498;40;20042;-68
2021/04/21 08:22:54;;;;;;;8.15;1.45;;;11.30;68.90;;;;;;5918401;40;20068;-67
2021/04/21 08:26:57;;;;;;;10.57;1.40;;;11.60;66.80;;;;;;5925055;40;20044;-68
2021/04/21 08:31:04;;;;;;;7.35;1.75;;;11.70;66.90;;;;;;5924970;40;20056;-68
2021/04/21 08:35:10;;;;;;;15.30;2.25;;;11.90;66.70;;;;;;5925098;40;20040;-68
2021/04/21 08:39:17;;;;;;;9.35;1.40;;;12.00;66.20;;;;;;5925370;40;20045;-68
2021/04/21 08:43:21;;;;;;;6.93;1.40;;;11.90;66.00;;;;;;5917101;40;20049;-66
2021/04/21 08:47:26;;;;;;;12.68;1.25;;;11.60;65.80;;;;;;5926585;40;20053;-65
2021/04/21 08:51:32;;;;;;;10.43;1.60;;;11.40;65.90;;;;;;5923632;40;20081;-67
2021/04/21 08:55:38;;;;;;;9.95;1.75;;;11.20;66.00;;;;;;5913800;40;20045;-68
2021/04/21 08:59:43;;;;;;;9.75;1.77;;;11.20;66.30;;;;;;5918240;40;20477;-67
2021/04/21 09:03:48;;;;;;;9.50;1.98;;;11.30;66.60;;;;;;5918478;40;20044;-68
2021/04/21 09:07:51;;;;;;;7.20;1.63;;;11.50;66.00;;;;;;5925862;40;20177;-67
2021/04/21 09:11:55;;;;;;;16.98;1.95;;;11.70;65.60;;;;;;5920142;40;20056;-68
2021/04/21 09:15:59;;;;;;;5.40;1.20;;;11.90;64.00;;;;;;5916405;40;20599;-68
2021/04/21 09:20:10;;;;;;;7.78;1.67;;;11.70;63.80;;;;;;5921608;40;20620;-68
2021/04/21 09:24:26;;;;;;;8.90;1.90;;;11.70;65.00;;;;;;5919297;40;20057;-68
2021/04/21 09:28:37;;;;;;;9.52;1.40;;;11.80;64.40;;;;;;5924617;40;20103;-68
2021/04/21 09:32:45;;;;;;;8.02;1.50;;;11.80;63.80;;;;;;5903995;40;20036;-67
2021/04/21 09:36:49;;;;;;;12.02;2.65;;;11.70;64.50;;;;;;5921065;40;20134;-67
2021/04/21 09:41:01;;;;;;;10.73;2.30;;;11.60;64.20;;;;;;5928525;40;20074;-68
2021/04/21 09:45:07;;;;;;;7.38;1.77;;;11.40;64.40;;;;;;5925561;40;20051;-67
2021/04/21 09:49:39;;;;;;;9.55;2.20;;;11.70;63.20;;;;;;5920424;40;20060;-67
2021/04/21 09:53:51;;;;;;;7.78;1.70;;;12.00;62.60;;;;;;5911054;40;20052;-68
2021/04/21 09:57:55;;;;;;;13.77;2.45;;;12.30;61.20;;;;;;5917648;40;20056;-68
2021/04/21 10:01:59;;;;;;;6.70;1.50;;;12.50;59.80;;;;;;5916549;40;20052;-68
2021/04/21 10:06:22;;;;;;;9.30;1.50;;;12.60;59.00;;;;;;5931459;40;20084;-68
2021/04/21 10:10:27;;;;;;;7.43;1.42;;;12.80;58.20;;;;;;5916993;40;20139;-68
2021/04/21 10:14:31;;;;;;;11.73;3.15;;;13.00;59.00;;;;;;5922630;40;20145;-68
2021/04/21 10:18:38;;;;;;;8.90;2.00;;;13.10;58.00;;;;;;5921874;40;20059;-68
2021/04/21 10:22:47;;;;;;;9.57;2.35;;;13.00;58.70;;;;;;5922574;40;20534;-68
2021/04/21 10:26:59;;;;;;;8.68;2.08;;;13.00;59.30;;;;;;5910258;40;20056;-68
2021/04/21 10:31:17;;;;;;;11.05;2.15;;;13.10;59.10;;;;;;5910918;40;20074;-70
2021/04/21 10:35:24;;;;;;;7.65;1.92;;;13.00;59.40;;;;;;5922480;40;20063;-68
2021/04/21 10:39:35;;;;;;;10.95;1.65;;;12.90;58.60;;;;;;5922017;40;20060;-68
2021/04/21 10:43:42;;;;;;;7.22;1.80;;;12.90;58.50;;;;;;5923626;40;20043;-68
2021/04/21 10:47:51;;;;;;;8.63;1.48;;;12.90;59.40;;;;;;5923248;40;20059;-68
2021/04/21 10:52:14;;;;;;;9.80;1.40;;;12.90;59.80;;;;;;5920363;40;20056;-69
2021/04/21 10:56:22;;;;;;;6.75;1.27;;;13.00;58.10;;;;;;5925360;40;20048;-68
2021/04/21 11:00:40;;;;;;;12.90;3.45;;;12.90;58.80;;;;;;5912984;40;20080;-68
2021/04/21 11:05:04;;;;;;;8.50;1.20;;;13.10;58.10;;;;;;5920338;40;20051;-67
2021/04/21 11:09:10;;;;;;;3.50;0.88;;;13.00;58.60;;;;;;5916330;40;20663;-68
2021/04/21 11:13:29;;;;;;;5.13;1.02;;;13.00;58.80;;;;;;5908945;40;20052;-67
2021/04/21 11:18:13;;;;;;;7.47;1.40;;;13.10;58.00;;;;;;5905217;40;20648;-67
2021/04/21 11:22:28;;;;;;;6.70;1.48;;;13.30;58.70;;;;;;5924124;40;20045;-68
2021/04/21 11:26:36;;;;;;;6.35;0.75;;;13.40;58.00;;;;;;5916503;40;20056;-67
2021/04/21 11:30:40;;;;;;;5.97;1.35;;;13.40;57.80;;;;;;5917689;40;20088;-67
2021/04/21 11:34:44;;;;;;;10.80;1.55;;;13.50;59.30;;;;;;5912454;40;20424;-68
2021/04/21 11:38:51;;;;;;;7.68;1.50;;;13.40;58.80;;;;;;5926783;40;20124;-68
2021/04/21 11:43:16;;;;;;;9.43;1.20;;;13.10;60.00;;;;;;5914566;40;20052;-67
2021/04/21 11:47:41;;;;;;;6.72;1.42;;;13.00;58.60;;;;;;5915002;40;20071;-68
2021/04/21 11:51:46;;;;;;;6.25;0.90;;;13.10;59.70;;;;;;5912566;40;21293;-67
2021/04/21 11:55:55;;;;;;;6.78;0.90;;;13.00;58.00;;;;;;5928057;40;20071;-68
2021/04/21 12:00:12;;;;;;;10.25;1.27;;;12.80;58.50;;;;;;5925408;40;20067;-67
2021/04/21 12:04:22;;;;;;;7.50;1.77;;;13.00;57.60;;;;;;5921933;40;20044;-68
2021/04/21 12:08:39;;;;;;;5.90;1.27;;;13.00;58.40;;;;;;5925313;40;20040;-68
2021/04/21 12:12:49;;;;;;;5.43;1.10;;;13.10;58.00;;;;;;5914844;40;20052;-67
2021/04/21 12:16:55;;;;;;;6.32;1.15;;;13.30;57.50;;;;;;5924870;40;20273;-68
2021/04/21 12:21:02;;;;;;;8.20;1.08;;;12.30;57.20;;;;;;5925389;40;20052;-67
2021/04/21 12:25:12;;;;;;;10.48;1.23;;;13.00;57.20;;;;;;5924499;40;20063;-67
2021/04/21 12:29:20;;;;;;;8.32;1.70;;;12.70;58.40;;;;;;5905151;40;20063;-67
2021/04/21 12:33:23;;;;;;;7.10;1.08;;;12.60;58.80;;;;;;5924870;40;20639;-66
2021/04/21 12:37:29;;;;;;;3.53;1.00;;;12.70;58.30;;;;;;5921840;40;20061;-67
2021/04/21 12:41:48;;;;;;;8.45;1.42;;;12.80;58.70;;;;;;5922140;40;20240;-66
2021/04/21 12:45:52;;;;;;;7.85;1.15;;;13.00;57.70;;;;;;5912830;40;20064;-67
2021/04/21 12:50:07;;;;;;;11.57;1.40;;;13.00;58.00;;;;;;5915208;40;20060;-65
2021/04/21 12:54:30;;;;;;;7.88;1.20;;;12.90;56.10;;;;;;5915927;40;20400;-67
2021/04/21 12:58:37;;;;;;;10.15;2.00;;;12.90;55.40;;;;;;5907594;40;20092;-67
2021/04/21 13:02:52;;;;;;;7.10;1.30;;;12.90;57.00;;;;;;5925539;40;20114;-67
2021/04/21 13:06:56;;;;;;;6.75;1.52;;;12.90;57.00;;;;;;5917477;40;20580;-67
2021/04/21 13:11:01;;;;;;;11.00;1.83;;;13.00;56.30;;;;;;5923820;40;20052;-67
2021/04/21 13:15:17;;;;;;;8.70;1.80;;;13.00;56.50;;;;;;5915084;40;20052;-68
2021/04/21 13:19:45;;;;;;;6.45;1.40;;;13.00;57.70;;;;;;5918051;40;20043;-66
2021/04/21 13:24:03;;;;;;;11.23;2.00;;;13.20;56.90;;;;;;5918408;40;20104;-67
2021/04/21 13:28:14;;;;;;;9.30;1.80;;;13.20;56.60;;;;;;5922676;40;20056;-67
2021/04/21 13:32:18;;;;;;;7.25;1.77;;;13.00;55.30;;;;;;5922440;40;20341;-68
2021/04/21 13:36:23;;;;;;;8.60;1.30;;;12.60;55.70;;;;;;5925496;40;20371;-67
2021/04/21 13:40:27;;;;;;;10.25;2.25;;;12.30;57.20;;;;;;5914292;40;20404;-67
2021/04/21 13:44:31;;;;;;;14.23;2.67;;;12.30;57.80;;;;;;5922981;40;20064;-67
2021/04/21 13:48:36;;;;;;;9.23;1.98;;;12.50;57.90;;;;;;5911775;40;20439;-68
2021/04/21 13:52:41;;;;;;;8.68;1.65;;;12.60;57.30;;;;;;5920762;40;20071;-66
2021/04/21 13:56:45;;;;;;;12.45;1.63;;;12.60;57.20;;;;;;5921861;40;20048;-67
2021/04/21 14:00:51;;;;;;;12.13;1.90;;;12.50;57.10;;;;;;5916028;40;20438;-67
2021/04/21 14:04:57;;;;;;;18.00;2.22;;;12.20;57.30;;;;;;5925532;40;20067;-67
2021/04/21 14:09:03;;;;;;;17.52;2.38;;;11.90;57.20;;;;;;5925459;40;20100;-67
2021/04/21 14:13:10;;;;;;;11.10;1.73;;;11.80;58.40;;;;;;5929376;40;20056;-68
2021/04/21 14:17:20;;;;;;;12.45;1.70;;;11.90;59.00;;;;;;5927992;40;20357;-66
2021/04/21 14:21:26;;;;;;;12.85;1.83;;;12.10;58.20;;;;;;5920299;40;20069;-68
2021/04/21 14:25:29;;;;;;;14.57;1.63;;;12.20;57.80;;;;;;5928800;40;20060;-67
2021/04/21 14:29:33;;;;;;;11.13;1.75;;;12.10;58.10;;;;;;5930031;40;20047;-70
2021/04/21 14:33:38;;;;;;;13.20;2.30;;;12.00;57.40;;;;;;5925956;40;20052;-71
2021/04/21 14:37:43;;;;;;;16.73;2.13;;;11.90;57.80;;;;;;5929490;40;20052;-71
2021/04/21 14:41:50;;;;;;;16.27;2.83;;;11.80;57.40;;;;;;5921282;40;20678;-70
2021/04/21 14:45:57;;;;;;;15.85;2.15;;;11.70;57.50;;;;;;5928204;40;20041;-70
2021/04/21 14:50:03;;;;;;;13.43;1.90;;;11.50;58.30;;;;;;5927253;40;20048;-69
2021/04/21 14:54:11;;;;;;;17.90;3.03;;;11.50;58.40;;;;;;5927091;40;20049;-70
2021/04/21 14:58:16;;;;;;;11.82;1.90;;;11.50;58.00;;;;;;5917960;40;20126;-71
2021/04/21 15:02:20;;;;;;;18.52;2.78;;;11.40;56.90;;;;;;5927288;40;20875;-69
2021/04/21 15:06:25;;;;;;;13.73;2.42;;;11.10;57.20;;;;;;5911203;40;20048;-70
2021/04/21 15:10:34;;;;;;;22.75;2.70;;;10.80;57.70;;;;;;5925908;40;20511;-70
2021/04/21 15:14:43;;;;;;;16.63;2.45;;;10.60;57.80;;;;;;5924608;40;20389;-71
2021/04/21 15:37:06;;;;;;;14.35;2.58;;;10.00;58.70;;;;;;5913495;40;20048;-70
2021/04/21 15:41:32;;;;;;;19.95;2.90;;;10.10;60.30;;;;;;5917090;40;20562;-70
2021/04/21 15:50:43;;;;;;;16.38;2.95;;;10.10;57.10;;;;;;5916549;40;19975;-71
2021/04/21 15:54:48;;;;;;;12.75;2.20;;;10.00;57.20;;;;;;5901687;40;20373;-70
2021/04/21 15:58:52;;;;;;;14.13;2.83;;;9.90;57.90;;;;;;5904719;40;20056;-71
2021/04/21 16:03:01;;;;;;;11.88;2.38;;;10.00;58.00;;;;;;5907662;40;21703;-69
2021/04/21 16:07:10;;;;;;;20.10;2.67;;;10.00;56.50;;;;;;5912105;40;20879;-69
2021/04/21 16:11:17;;;;;;;18.65;2.85;;;9.90;57.00;;;;;;5911745;40;20067;-67
2021/04/21 16:15:24;;;;;;;21.20;2.90;;;9.80;56.60;;;;;;5906566;40;20372;-66
2021/04/21 16:19:32;;;;;;;13.13;2.00;;;9.60;57.20;;;;;;5913686;40;20416;-66
2021/04/21 16:23:36;;;;;;;14.88;2.95;;;9.60;57.60;;;;;;5905710;40;20068;-65
2021/04/21 16:27:45;;;;;;;15.70;2.20;;;9.50;57.80;;;;;;5910356;40;20056;-66
2021/04/21 16:31:49;;;;;;;16.98;3.03;;;9.40;57.60;;;;;;5916291;40;20100;-66
2021/04/21 16:36:01;;;;;;;14.20;3.40;;;9.40;57.90;;;;;;5905490;40;20056;-66
2021/04/21 16:40:07;;;;;;;20.15;3.13;;;9.30;58.20;;;;;;5912136;40;20072;-66
2021/04/21 16:44:13;;;;;;;13.52;2.83;;;9.20;58.40;;;;;;5919344;40;20044;-67
2021/04/21 16:48:20;;;;;;;14.02;2.97;;;9.20;58.80;;;;;;5915619;40;20063;-66
2021/04/21 16:52:27;;;;;;;24.30;4.18;;;9.10;58.90;;;;;;5909303;40;20468;-65
2021/04/21 16:56:35;;;;;;;16.88;3.15;;;9.10;59.20;;;;;;5915596;40;20053;-67
2021/04/21 17:00:37;;;;;;;18.92;4.00;;;9.10;59.20;;;;;;5916882;40;20390;-65
2021/04/21 17:04:41;;;;;;;17.30;3.20;;;9.10;58.90;;;;;;5914549;40;20048;-65
2021/04/21 17:08:50;;;;;;;23.60;4.07;;;9.00;58.90;;;;;;5905810;40;20312;-66
2021/04/21 17:12:57;;;;;;;16.40;3.55;;;8.90;59.00;;;;;;5905881;40;20222;-66
2021/04/21 17:17:01;;;;;;;19.65;3.50;;;8.90;59.00;;;;;;5917678;40;20283;-67
2021/04/21 17:21:05;;;;;;;16.23;3.30;;;8.80;58.90;;;;;;5915570;40;20072;-66
2021/04/21 17:25:12;;;;;;;18.63;3.75;;;8.80;59.70;;;;;;5921495;40;20056;-66
2021/04/21 17:29:21;;;;;;;19.17;3.28;;;8.70;59.30;;;;;;5919168;40;20326;-66
2021/04/21 17:33:25;;;;;;;23.60;4.60;;;8.60;59.40;;;;;;5921335;39;20088;-66
2021/04/21 17:37:29;;;;;;;17.95;4.20;;;8.60;59.60;;;;;;5908594;40;20041;-65
2021/04/21 17:41:34;;;;;;;28.27;4.80;;;8.50;60.40;;;;;;5917919;40;20052;-64
2021/04/21 17:45:46;;;;;;;19.13;3.85;;;8.40;60.00;;;;;;5916941;40;20052;-66
2021/04/21 17:49:50;;;;;;;21.10;4.47;;;8.30;60.40;;;;;;5923611;40;20058;-65
2021/04/21 17:53:57;;;;;;;17.77;3.65;;;8.20;60.20;;;;;;5914850;40;20052;-65
2021/04/21 17:58:02;;;;;;;24.48;4.30;;;8.10;60.60;;;;;;5924092;40;20244;-66
2021/04/21 18:02:06;;;;;;;21.77;5.00;;;8.10;61.10;;;;;;5919470;40;20424;-65
2021/04/21 18:06:12;;;;;;;14.95;4.05;;;8.00;61.10;;;;;;5910536;40;20455;-66
2021/04/21 18:10:19;;;;;;;18.08;4.38;;;8.00;61.30;;;;;;5925640;40;20052;-66
2021/04/21 18:14:26;;;;;;;24.55;4.28;;;8.00;61.30;;;;;;5921190;40;20485;-66
2021/04/21 18:18:32;;;;;;;18.27;3.92;;;7.90;61.50;;;;;;5914205;40;20444;-65
2021/04/21 18:22:38;;;;;;;24.90;3.85;;;8.00;61.20;;;;;;5919844;40;20060;-64
2021/04/21 18:26:40;;;;;;;13.63;3.00;;;7.80;61.60;;;;;;5923303;40;20060;-66
2021/04/21 18:30:49;;;;;;;20.60;3.70;;;7.70;61.30;;;;;;5917493;40;20339;-66
2021/04/21 18:34:53;;;;;;;16.67;3.30;;;7.70;61.90;;;;;;5912994;40;20566;-65
2021/04/21 18:39:00;;;;;;;21.20;4.45;;;7.60;62.60;;;;;;5905432;40;20149;-68
2021/04/21 18:43:06;;;;;;;22.20;3.80;;;7.50;62.30;;;;;;5924311;40;20127;-70
2021/04/21 18:47:13;;;;;;;23.83;3.58;;;7.60;62.70;;;;;;5907993;40;20149;-69
2021/04/21 18:51:18;;;;;;;21.73;4.97;;;7.50;62.60;;;;;;5921443;40;20328;-70
2021/04/21 18:55:28;;;;;;;21.42;4.45;;;7.50;62.70;;;;;;5908774;40;20184;-70
2021/04/21 18:59:32;;;;;;;19.00;3.58;;;7.60;62.20;;;;;;5892767;40;20044;-69
2021/04/21 19:03:38;;;;;;;21.05;3.97;;;7.50;62.20;;;;;;5919963;40;20058;-69
2021/04/21 19:07:45;;;;;;;11.13;2.70;;;7.50;62.00;;;;;;5927915;40;20062;-69
2021/04/21 19:11:52;;;;;;;25.10;4.13;;;7.40;61.70;;;;;;5930342;40;20076;-69
2021/04/21 19:16:00;;;;;;;17.23;3.38;;;7.40;62.60;;;;;;5925824;40;20040;-69
2021/04/21 19:20:13;;;;;;;16.60;3.35;;;7.30;62.40;;;;;;5922003;40;20067;-69
2021/04/21 19:24:18;;;;;;;16.88;3.50;;;7.40;62.60;;;;;;5931077;40;20040;-69
2021/04/21 19:28:23;;;;;;;21.48;3.13;;;7.40;63.70;;;;;;5934933;40;20056;-69
2021/04/21 19:32:36;;;;;;;17.63;2.85;;;7.30;62.70;;;;;;5930093;40;20062;-70
2021/04/21 19:36:42;;;;;;;24.20;4.72;;;7.30;63.00;;;;;;5931375;40;20502;-70
2021/04/21 19:40:47;;;;;;;18.25;3.40;;;7.30;63.30;;;;;;5929397;40;20120;-69
2021/04/21 19:44:56;;;;;;;15.40;3.28;;;7.30;63.00;;;;;;5928809;40;20047;-69
2021/04/21 19:49:04;;;;;;;20.73;3.40;;;7.20;63.80;;;;;;5931491;40;20104;-70
2021/04/21 19:53:13;;;;;;;23.42;4.32;;;6.10;63.40;;;;;;5928624;40;20059;-70
2021/04/21 19:57:20;;;;;;;19.30;4.07;;;7.20;64.40;;;;;;5929563;40;20048;-70
2021/04/21 20:01:24;;;;;;;21.27;3.78;;;7.10;64.20;;;;;;5931204;40;20103;-70
2021/04/21 20:05:31;;;;;;;24.45;3.72;;;7.10;63.90;;;;;;5933408;40;20114;-70
2021/04/21 20:09:35;;;;;;;23.27;4.60;;;7.10;63.90;;;;;;5924314;40;20139;-70
2021/04/21 20:13:40;;;;;;;16.50;3.88;;;7.10;64.60;;;;;;5932424;40;20504;-70
2021/04/21 20:17:45;;;;;;;17.92;3.42;;;7.10;64.20;;;;;;5932627;40;20052;-69
2021/04/21 20:21:50;;;;;;;22.30;4.28;;;7.10;65.60;;;;;;5930634;40;20422;-70
2021/04/21 20:25:59;;;;;;;24.88;4.05;;;7.20;65.40;;;;;;5931827;40;20052;-68
2021/04/21 20:30:11;;;;;;;16.35;3.20;;;7.20;65.40;;;;;;5919555;40;20056;-69
2021/04/21 20:34:15;;;;;;;21.60;3.72;;;7.20;64.90;;;;;;5932033;40;20137;-69
2021/04/21 20:38:22;;;;;;;19.65;3.83;;;7.20;65.00;;;;;;5922182;40;20098;-68
2021/04/21 20:42:29;;;;;;;24.55;4.00;;;7.10;64.70;;;;;;5929167;40;20600;-68
2021/04/21 20:46:35;;;;;;;11.68;2.40;;;7.20;65.20;;;;;;5931113;40;20041;-69
2021/04/21 20:50:39;;;;;;;17.98;3.95;;;7.10;65.70;;;;;;5922577;40;20225;-69
2021/04/21 20:54:46;;;;;;;20.98;3.97;;;7.10;66.00;;;;;;5927141;40;20049;-69
2021/04/21 20:58:55;;;;;;;16.67;3.58;;;7.10;65.20;;;;;;5930108;40;20060;-69
2021/04/21 21:03:02;;;;;;;24.33;3.80;;;7.10;66.20;;;;;;5927274;40;20084;-70
2021/04/21 21:07:10;;;;;;;28.80;4.00;;;8.00;67.20;;;;;;5931576;40;20033;-69
2021/04/21 21:11:15;;;;;;;20.63;4.25;;;6.90;67.00;;;;;;5931089;40;20056;-69
2021/04/21 21:15:20;;;;;;;19.92;3.78;;;6.90;68.20;;;;;;5928985;40;20135;-70
2021/04/21 21:19:25;;;;;;;22.80;3.92;;;6.90;67.00;;;;;;5928789;40;20056;-69
2021/04/21 21:23:29;;;;;;;18.60;4.05;;;7.00;66.60;;;;;;5930750;40;20057;-69
2021/04/21 21:27:42;;;;;;;24.50;4.32;;;6.90;67.10;;;;;;5920628;40;20045;-70
2021/04/21 21:31:45;;;;;;;;;;;6.90;67.60;;;;;;5922971;40;20056;-69
2021/04/21 21:35:52;;;;;;;19.63;4.15;;;6.90;70.30;;;;;;5926869;40;20241;-69
2021/04/21 21:40:16;;;;;;;20.27;3.78;;;7.00;67.50;;;;;;5929123;40;20131;-70
2021/04/21 21:44:30;;;;;;;17.80;3.83;;;7.60;69.70;;;;;;5928233;40;20048;-69
2021/04/21 21:48:35;;;;;;;24.50;4.90;;;7.00;68.20;;;;;;5929160;40;20361;-69
2021/04/21 21:52:45;;;;;;;25.83;4.28;;;7.00;68.50;;;;;;5915882;40;20447;-70
2021/04/21 21:56:49;;;;;;;19.83;4.22;;;7.00;68.90;;;;;;5920955;40;20412;-69
2021/04/21 22:00:54;;;;;;;24.15;4.00;;;6.90;67.90;;;;;;5916886;40;20126;-70